Allendale, Massachusetts
Current Conditions -  °F | °C
As of 9:14 AM on Thursday 23 Oct 2014 (Local Time) from KPSF Reporting Station
Moderate Rain Moderate Rain  
Wind Chill: 42°   Ceiling: 4400
Heat Index: 45°   Visibility: 2.5mi
Dew Point: 43°   Wind: 6mph
Humidity: 93%   Direction: 360°N
Pressure: 29.76"   Gusts: NA
Location:  42.4608°N, 73.282°W
Report Text: KPSF 231314Z AUTO 36005KT 2 1/2SM RA BR SCT021 OVC044 07/06 A2976 RMK AO2 P0003 T00720061
Loading
Personal Weather Stations






























Interactive Weather Map
Tropical Storm Tracking
New forecast layout! Learn more

10-Day Weather Forecast

Advertisements
Track Severe Weather on mobile